sensor_id;sensor_type;location;lat;lon;timestamp;pressure;altitude;pressure_sealevel;temperature;humidity
73455;BME280;61690;51.824;6.306;2022-12-29T00:01:35;100002.69;;;19.74;52.75
73455;BME280;61690;51.824;6.306;2022-12-29T00:04:01;100001.00;;;19.73;52.67
73455;BME280;61690;51.824;6.306;2022-12-29T00:06:27;99987.69;;;19.74;52.63
73455;BME280;61690;51.824;6.306;2022-12-29T00:08:52;99982.53;;;19.73;52.55
73455;BME280;61690;51.824;6.306;2022-12-29T00:11:20;99994.78;;;19.74;52.45
73455;BME280;61690;51.824;6.306;2022-12-29T00:13:46;99994.06;;;19.72;52.75
73455;BME280;61690;51.824;6.306;2022-12-29T00:16:30;99991.44;;;19.72;52.65
73455;BME280;61690;51.824;6.306;2022-12-29T00:18:55;99978.94;;;19.74;52.85
73455;BME280;61690;51.824;6.306;2022-12-29T00:21:22;99972.69;;;19.75;52.84
73455;BME280;61690;51.824;6.306;2022-12-29T00:24:08;99973.66;;;19.74;52.94
73455;BME280;61690;51.824;6.306;2022-12-29T00:27:07;99971.16;;;19.72;53.11
73455;BME280;61690;51.824;6.306;2022-12-29T00:29:53;99976.31;;;19.74;52.91
73455;BME280;61690;51.824;6.306;2022-12-29T00:32:36;99963.00;;;19.75;52.70
73455;BME280;61690;51.824;6.306;2022-12-29T00:35:44;99948.94;;;19.75;52.86
73455;BME280;61690;51.824;6.306;2022-12-29T00:38:12;99955.06;;;19.75;52.76
73455;BME280;61690;51.824;6.306;2022-12-29T00:40:56;99956.72;;;19.76;52.79
73455;BME280;61690;51.824;6.306;2022-12-29T00:43:40;99951.94;;;19.70;52.38
73455;BME280;61690;51.824;6.306;2022-12-29T00:46:24;99942.22;;;19.71;52.26
73455;BME280;61690;51.824;6.306;2022-12-29T00:48:49;99940.31;;;19.73;52.26
73455;BME280;61690;51.824;6.306;2022-12-29T00:51:33;99935.91;;;19.73;52.33
73455;BME280;61690;51.824;6.306;2022-12-29T00:53:58;99935.16;;;19.71;52.44
73455;BME280;61690;51.824;6.306;2022-12-29T00:56:24;99945.72;;;19.71;52.59
73455;BME280;61690;51.824;6.306;2022-12-29T00:58:49;99937.06;;;19.69;52.93
73455;BME280;61690;51.824;6.306;2022-12-29T01:01:14;99940.44;;;19.71;52.63
73455;BME280;61690;51.824;6.306;2022-12-29T01:03:40;99934.22;;;19.72;52.40
73455;BME280;61690;51.824;6.306;2022-12-29T01:06:08;99924.59;;;19.71;52.73
73455;BME280;61690;51.824;6.306;2022-12-29T01:08:33;99928.94;;;19.72;52.67
73455;BME280;61690;51.824;6.306;2022-12-29T01:11:08;99928.09;;;19.72;52.62
73455;BME280;61690;51.824;6.306;2022-12-29T01:13:34;99929.75;;;19.73;52.71
73455;BME280;61690;51.824;6.306;2022-12-29T01:16:00;99920.06;;;19.73;52.67
73455;BME280;61690;51.824;6.306;2022-12-29T01:18:25;99917.28;;;19.75;52.70
73455;BME280;61690;51.824;6.306;2022-12-29T01:20:51;99915.63;;;19.74;52.56
73455;BME280;61690;51.824;6.306;2022-12-29T01:23:22;99928.69;;;19.75;52.60
73455;BME280;61690;51.824;6.306;2022-12-29T01:25:48;99907.69;;;19.74;52.93
73455;BME280;61690;51.824;6.306;2022-12-29T01:28:13;99905.06;;;19.74;52.76
73455;BME280;61690;51.824;6.306;2022-12-29T01:30:39;99901.44;;;19.75;52.70
73455;BME280;61690;51.824;6.306;2022-12-29T01:33:04;99903.13;;;19.76;52.72
73455;BME280;61690;51.824;6.306;2022-12-29T01:35:29;99910.34;;;19.74;52.84
73455;BME280;61690;51.824;6.306;2022-12-29T01:37:55;99913.94;;;19.73;53.04
73455;BME280;61690;51.824;6.306;2022-12-29T01:40:20;99910.34;;;19.74;52.96
73455;BME280;61690;51.824;6.306;2022-12-29T01:42:45;99908.78;;;19.71;53.18
73455;BME280;61690;51.824;6.306;2022-12-29T01:45:15;99905.06;;;19.74;52.80
73455;BME280;61690;51.824;6.306;2022-12-29T01:47:54;99906.00;;;19.73;52.84
73455;BME280;61690;51.824;6.306;2022-12-29T01:50:29;99888.53;;;19.72;52.66
73455;BME280;61690;51.824;6.306;2022-12-29T01:52:58;99884.09;;;19.72;52.90
73455;BME280;61690;51.824;6.306;2022-12-29T01:55:27;99881.44;;;19.72;52.50
73455;BME280;61690;51.824;6.306;2022-12-29T01:57:55;99876.16;;;19.72;52.90
73455;BME280;61690;51.824;6.306;2022-12-29T02:00:22;99866.44;;;19.73;52.93
73455;BME280;61690;51.824;6.306;2022-12-29T02:02:51;99868.13;;;19.74;52.63
73455;BME280;61690;51.824;6.306;2022-12-29T02:05:32;99857.56;;;19.74;52.55
73455;BME280;61690;51.824;6.306;2022-12-29T02:07:59;99860.22;;;19.74;52.65
73455;BME280;61690;51.824;6.306;2022-12-29T02:10:27;99868.13;;;19.74;52.99
73455;BME280;61690;51.824;6.306;2022-12-29T02:12:54;99864.78;;;19.72;52.98
73455;BME280;61690;51.824;6.306;2022-12-29T02:15:35;99864.78;;;19.72;52.95
73455;BME280;61690;51.824;6.306;2022-12-29T02:18:35;99866.44;;;19.73;53.11
73455;BME280;61690;51.824;6.306;2022-12-29T02:21:26;99870.81;;;19.63;52.72
73455;BME280;61690;51.824;6.306;2022-12-29T02:26:51;99862.75;;;19.54;52.87
73455;BME280;61690;51.824;6.306;2022-12-29T02:40:24;99856.84;;;19.41;52.67
73455;BME280;61690;51.824;6.306;2022-12-29T02:43:12;99849.19;;;19.38;53.00
73455;BME280;61690;51.824;6.306;2022-12-29T02:46:01;99838.75;;;19.36;52.86
73455;BME280;61690;51.824;6.306;2022-12-29T02:48:38;99841.78;;;19.32;52.64
73455;BME280;61690;51.824;6.306;2022-12-29T02:51:27;99836.66;;;19.30;52.87
73455;BME280;61690;51.824;6.306;2022-12-29T02:53:56;99836.78;;;19.29;52.73
73455;BME280;61690;51.824;6.306;2022-12-29T02:56:40;99828.16;;;19.27;52.70
73455;BME280;61690;51.824;6.306;2022-12-29T02:59:06;99830.09;;;19.25;52.41
73455;BME280;61690;51.824;6.306;2022-12-29T03:07:47;99827.16;;;19.18;52.23
73455;BME280;61690;51.824;6.306;2022-12-29T03:10:35;99818.66;;;19.14;52.54
73455;BME280;61690;51.824;6.306;2022-12-29T03:13:10;99817.00;;;19.13;52.45
73455;BME280;61690;51.824;6.306;2022-12-29T03:19:00;99804.22;;;19.09;52.24
73455;BME280;61690;51.824;6.306;2022-12-29T03:24:18;99818.63;;;19.05;52.40
73455;BME280;61690;51.824;6.306;2022-12-29T03:26:47;99816.94;;;19.04;52.49
73455;BME280;61690;51.824;6.306;2022-12-29T03:29:13;99824.97;;;19.02;52.25
73455;BME280;61690;51.824;6.306;2022-12-29T03:31:41;99814.69;;;18.99;52.23
73455;BME280;61690;51.824;6.306;2022-12-29T03:34:08;99814.69;;;18.99;51.86
73455;BME280;61690;51.824;6.306;2022-12-29T03:36:48;99819.28;;;18.97;52.35
73455;BME280;61690;51.824;6.306;2022-12-29T03:39:16;99817.59;;;18.96;52.24
73455;BME280;61690;51.824;6.306;2022-12-29T03:41:46;99813.28;;;18.95;51.79
73455;BME280;61690;51.824;6.306;2022-12-29T03:44:13;99809.94;;;18.93;51.94
73455;BME280;61690;51.824;6.306;2022-12-29T03:46:39;99806.47;;;18.92;51.79
73455;BME280;61690;51.824;6.306;2022-12-29T03:49:04;99804.94;;;18.90;51.71
73455;BME280;61690;51.824;6.306;2022-12-29T03:51:29;99799.78;;;18.88;51.95
73455;BME280;61690;51.824;6.306;2022-12-29T03:53:55;99805.88;;;18.89;52.10
73455;BME280;61690;51.824;6.306;2022-12-29T03:56:20;99806.84;;;18.88;52.00
73455;BME280;61690;51.824;6.306;2022-12-29T03:58:45;99809.88;;;18.83;51.86
73455;BME280;61690;51.824;6.306;2022-12-29T04:01:11;99800.75;;;18.87;51.75
73455;BME280;61690;51.824;6.306;2022-12-29T04:03:36;99801.91;;;18.94;51.58
73455;BME280;61690;51.824;6.306;2022-12-29T04:06:01;99801.66;;;18.97;51.50
73455;BME280;61690;51.824;6.306;2022-12-29T04:08:27;99790.00;;;19.00;51.42
73455;BME280;61690;51.824;6.306;2022-12-29T04:10:55;99804.88;;;19.01;51.19
73455;BME280;61690;51.824;6.306;2022-12-29T04:13:20;99808.19;;;19.03;51.24
73455;BME280;61690;51.824;6.306;2022-12-29T04:15:45;99806.38;;;19.04;51.13
73455;BME280;61690;51.824;6.306;2022-12-29T04:18:12;99816.09;;;19.03;51.60
73455;BME280;61690;51.824;6.306;2022-12-29T04:20:37;99819.69;;;19.02;51.26
73455;BME280;61690;51.824;6.306;2022-12-29T04:23:21;99822.47;;;19.00;51.31
73455;BME280;61690;51.824;6.306;2022-12-29T04:25:47;99827.75;;;19.00;51.40
73455;BME280;61690;51.824;6.306;2022-12-29T04:28:15;99828.81;;;18.98;51.37
73455;BME280;61690;51.824;6.306;2022-12-29T04:30:41;99815.78;;;18.96;51.71
73455;BME280;61690;51.824;6.306;2022-12-29T04:33:07;99802.75;;;18.95;51.16
73455;BME280;61690;51.824;6.306;2022-12-29T04:35:32;99832.69;;;18.94;51.12
73455;BME280;61690;51.824;6.306;2022-12-29T04:37:57;99829.34;;;18.92;51.76
73455;BME280;61690;51.824;6.306;2022-12-29T04:40:23;99842.66;;;18.90;51.37
73455;BME280;61690;51.824;6.306;2022-12-29T04:42:49;99846.13;;;18.91;51.38
73455;BME280;61690;51.824;6.306;2022-12-29T04:45:14;99852.47;;;18.88;51.56
73455;BME280;61690;51.824;6.306;2022-12-29T04:47:40;99853.59;;;18.86;51.79
73455;BME280;61690;51.824;6.306;2022-12-29T04:50:05;99836.78;;;18.87;51.42
73455;BME280;61690;51.824;6.306;2022-12-29T04:52:31;99827.09;;;18.87;51.42
73455;BME280;61690;51.824;6.306;2022-12-29T04:54:56;99820.28;;;18.85;51.67
73455;BME280;61690;51.824;6.306;2022-12-29T04:57:21;99816.00;;;18.84;51.70
73455;BME280;61690;51.824;6.306;2022-12-29T04:59:46;99824.13;;;18.80;51.62
73455;BME280;61690;51.824;6.306;2022-12-29T05:02:12;99831.22;;;18.80;51.74
73455;BME280;61690;51.824;6.306;2022-12-29T05:04:37;99827.72;;;18.79;51.62
73455;BME280;61690;51.824;6.306;2022-12-29T05:07:02;99836.81;;;18.75;51.66
73455;BME280;61690;51.824;6.306;2022-12-29T05:09:27;99848.34;;;18.74;51.91
73455;BME280;61690;51.824;6.306;2022-12-29T05:11:54;99830.28;;;18.70;51.68
73455;BME280;61690;51.824;6.306;2022-12-29T05:14:20;99829.44;;;18.69;51.78
73455;BME280;61690;51.824;6.306;2022-12-29T05:16:45;99847.03;;;18.69;51.36
73455;BME280;61690;51.824;6.306;2022-12-29T05:19:10;99851.47;;;18.68;51.56
73455;BME280;61690;51.824;6.306;2022-12-29T05:21:35;99847.44;;;18.64;51.54
73455;BME280;61690;51.824;6.306;2022-12-29T05:24:01;99850.78;;;18.66;51.54
73455;BME280;61690;51.824;6.306;2022-12-29T05:26:26;99848.25;;;18.65;51.50
73455;BME280;61690;51.824;6.306;2022-12-29T05:28:52;99850.19;;;18.63;51.89
73455;BME280;61690;51.824;6.306;2022-12-29T05:31:17;99863.47;;;18.61;51.41
73455;BME280;61690;51.824;6.306;2022-12-29T05:33:42;99869.84;;;18.58;51.92
73455;BME280;61690;51.824;6.306;2022-12-29T05:36:08;99877.34;;;18.63;51.30
73455;BME280;61690;51.824;6.306;2022-12-29T05:38:35;99886.47;;;18.59;51.41
73455;BME280;61690;51.824;6.306;2022-12-29T05:41:00;99889.69;;;18.63;51.68
73455;BME280;61690;51.824;6.306;2022-12-29T05:43:26;99889.56;;;18.64;51.66
73455;BME280;61690;51.824;6.306;2022-12-29T05:45:52;99902.03;;;18.62;51.20
73455;BME280;61690;51.824;6.306;2022-12-29T05:48:17;99903.69;;;18.63;51.34
73455;BME280;61690;51.824;6.306;2022-12-29T05:50:42;99916.84;;;18.63;51.57
73455;BME280;61690;51.824;6.306;2022-12-29T05:53:08;99918.66;;;18.63;51.04
73455;BME280;61690;51.824;6.306;2022-12-29T05:55:34;99924.53;;;18.66;51.19
73455;BME280;61690;51.824;6.306;2022-12-29T05:57:59;99935.06;;;18.66;51.19
73455;BME280;61690;51.824;6.306;2022-12-29T06:00:24;99926.56;;;18.63;51.34
73455;BME280;61690;51.824;6.306;2022-12-29T06:02:50;99934.47;;;18.63;51.05
73455;BME280;61690;51.824;6.306;2022-12-29T06:05:15;99932.91;;;18.60;51.00
73455;BME280;61690;51.824;6.306;2022-12-29T06:07:41;99936.50;;;18.59;51.31
73455;BME280;61690;51.824;6.306;2022-12-29T06:10:07;99936.63;;;18.57;51.37
73455;BME280;61690;51.824;6.306;2022-12-29T06:12:32;99934.97;;;18.56;51.28
73455;BME280;61690;51.824;6.306;2022-12-29T06:14:58;99936.63;;;18.57;50.85
73455;BME280;61690;51.824;6.306;2022-12-29T06:17:23;99936.03;;;18.54;51.08
73455;BME280;61690;51.824;6.306;2022-12-29T06:19:48;99933.41;;;18.54;50.96
73455;BME280;61690;51.824;6.306;2022-12-29T06:22:13;99930.16;;;18.50;51.51
73455;BME280;61690;51.824;6.306;2022-12-29T06:24:39;99933.78;;;18.49;51.04
73455;BME280;61690;51.824;6.306;2022-12-29T06:27:04;99926.72;;;18.50;51.33
73455;BME280;61690;51.824;6.306;2022-12-29T06:29:30;99933.19;;;18.46;51.33
73455;BME280;61690;51.824;6.306;2022-12-29T06:31:55;99940.16;;;18.47;51.25
73455;BME280;61690;51.824;6.306;2022-12-29T06:34:24;99939.41;;;18.45;51.16
73455;BME280;61690;51.824;6.306;2022-12-29T06:36:50;99939.66;;;18.41;51.21
73455;BME280;61690;51.824;6.306;2022-12-29T06:39:15;99930.56;;;18.46;51.19
73455;BME280;61690;51.824;6.306;2022-12-29T06:41:40;99942.53;;;18.38;51.15
73455;BME280;61690;51.824;6.306;2022-12-29T06:44:06;99930.06;;;18.40;51.21
73455;BME280;61690;51.824;6.306;2022-12-29T06:46:31;99932.25;;;18.47;51.30
73455;BME280;61690;51.824;6.306;2022-12-29T06:48:56;99929.09;;;18.53;50.97
73455;BME280;61690;51.824;6.306;2022-12-29T06:51:22;99942.28;;;18.53;50.72
73455;BME280;61690;51.824;6.306;2022-12-29T06:53:47;99941.31;;;18.54;50.94
73455;BME280;61690;51.824;6.306;2022-12-29T06:56:12;99950.88;;;18.55;50.80
73455;BME280;61690;51.824;6.306;2022-12-29T06:58:38;99948.38;;;18.53;51.28
73455;BME280;61690;51.824;6.306;2022-12-29T07:01:03;99947.53;;;18.53;50.81
73455;BME280;61690;51.824;6.306;2022-12-29T07:03:28;99947.66;;;18.51;50.54
73455;BME280;61690;51.824;6.306;2022-12-29T07:05:54;99953.88;;;18.50;50.74
73455;BME280;61690;51.824;6.306;2022-12-29T07:08:20;99943.72;;;18.46;51.05
73455;BME280;61690;51.824;6.306;2022-12-29T07:10:45;99949.00;;;18.46;50.75
73455;BME280;61690;51.824;6.306;2022-12-29T07:13:11;99943.50;;;18.49;50.67
73455;BME280;61690;51.824;6.306;2022-12-29T07:15:37;99954.13;;;18.47;50.69
73455;BME280;61690;51.824;6.306;2022-12-29T07:18:03;99967.41;;;18.46;50.77
73455;BME280;61690;51.824;6.306;2022-12-29T07:20:29;99965.88;;;18.43;51.03
73455;BME280;61690;51.824;6.306;2022-12-29T07:22:54;99978.06;;;18.44;50.82
73455;BME280;61690;51.824;6.306;2022-12-29T07:25:20;99960.63;;;18.43;50.66
73455;BME280;61690;51.824;6.306;2022-12-29T07:27:45;99968.63;;;18.41;51.07
73455;BME280;61690;51.824;6.306;2022-12-29T07:30:11;99975.81;;;18.39;50.89
73455;BME280;61690;51.824;6.306;2022-12-29T07:32:36;99981.31;;;18.36;50.86
73455;BME280;61690;51.824;6.306;2022-12-29T07:35:02;99977.97;;;18.34;50.96
73455;BME280;61690;51.824;6.306;2022-12-29T07:37:27;99980.81;;;18.31;51.36
73455;BME280;61690;51.824;6.306;2022-12-29T07:39:53;99983.59;;;18.30;51.29
73455;BME280;61690;51.824;6.306;2022-12-29T07:42:18;99979.16;;;18.30;50.96
73455;BME280;61690;51.824;6.306;2022-12-29T07:44:43;99980.34;;;17.92;48.01
73455;BME280;61690;51.824;6.306;2022-12-29T07:47:09;99987.53;;;18.01;48.09
73455;BME280;61690;51.824;6.306;2022-12-29T07:49:34;99985.16;;;18.21;47.90
73455;BME280;61690;51.824;6.306;2022-12-29T07:52:00;99993.66;;;18.25;47.61
73455;BME280;61690;51.824;6.306;2022-12-29T07:54:25;99991.13;;;18.23;47.79
73455;BME280;61690;51.824;6.306;2022-12-29T07:56:51;99997.22;;;18.23;48.10
73455;BME280;61690;51.824;6.306;2022-12-29T07:59:17;99999.03;;;18.12;48.59
73455;BME280;61690;51.824;6.306;2022-12-29T08:01:42;100000.22;;;18.19;48.49
73455;BME280;61690;51.824;6.306;2022-12-29T08:04:07;100003.84;;;18.18;48.25
73455;BME280;61690;51.824;6.306;2022-12-29T08:06:33;100006.81;;;18.13;48.73
73455;BME280;61690;51.824;6.306;2022-12-29T08:08:58;100004.53;;;18.09;49.04
73455;BME280;61690;51.824;6.306;2022-12-29T08:11:25;100007.53;;;18.15;48.87
73455;BME280;61690;51.824;6.306;2022-12-29T08:13:50;100010.75;;;18.19;48.68
73455;BME280;61690;51.824;6.306;2022-12-29T08:16:15;100020.34;;;18.20;48.54
73455;BME280;61690;51.824;6.306;2022-12-29T08:18:41;100009.09;;;18.18;48.71
73455;BME280;61690;51.824;6.306;2022-12-29T08:21:06;100020.34;;;18.20;48.93
73455;BME280;61690;51.824;6.306;2022-12-29T08:23:31;100025.13;;;18.15;49.03
73455;BME280;61690;51.824;6.306;2022-12-29T08:25:58;100025.94;;;18.15;49.10
73455;BME280;61690;51.824;6.306;2022-12-29T08:28:24;100025.94;;;18.15;48.84
73455;BME280;61690;51.824;6.306;2022-12-29T08:30:49;100028.94;;;18.22;48.98
73455;BME280;61690;51.824;6.306;2022-12-29T08:33:14;100033.13;;;18.25;48.92
73455;BME280;61690;51.824;6.306;2022-12-29T08:35:39;100016.13;;;18.29;48.78
73455;BME280;61690;51.824;6.306;2022-12-29T08:38:05;100022.00;;;18.32;49.02
73455;BME280;61690;51.824;6.306;2022-12-29T08:40:30;100024.53;;;18.34;48.88
73455;BME280;61690;51.824;6.306;2022-12-29T08:42:55;100017.47;;;18.34;48.92
73455;BME280;61690;51.824;6.306;2022-12-29T08:45:20;100029.78;;;18.34;49.01
73455;BME280;61690;51.824;6.306;2022-12-29T08:47:46;100028.97;;;18.33;48.93
73455;BME280;61690;51.824;6.306;2022-12-29T08:50:11;100033.25;;;18.34;49.30
73455;BME280;61690;51.824;6.306;2022-12-29T08:52:36;100035.78;;;18.36;49.79
73455;BME280;61690;51.824;6.306;2022-12-29T08:55:02;100034.91;;;18.69;50.07
73455;BME280;61690;51.824;6.306;2022-12-29T08:57:27;100028.69;;;18.59;50.07
73455;BME280;61690;51.824;6.306;2022-12-29T08:59:52;100040.22;;;18.47;50.32
73455;BME280;61690;51.824;6.306;2022-12-29T09:02:18;100032.91;;;18.39;50.33
73455;BME280;61690;51.824;6.306;2022-12-29T09:04:43;100029.69;;;18.35;50.78
73455;BME280;61690;51.824;6.306;2022-12-29T09:07:08;100013.00;;;18.35;50.41
73455;BME280;61690;51.824;6.306;2022-12-29T09:09:34;100015.06;;;18.31;50.99
73455;BME280;61690;51.824;6.306;2022-12-29T09:11:59;100025.84;;;18.28;50.69
73455;BME280;61690;51.824;6.306;2022-12-29T09:14:24;100025.84;;;18.28;50.78
73455;BME280;61690;51.824;6.306;2022-12-29T09:16:54;100026.94;;;18.26;50.78
73455;BME280;61690;51.824;6.306;2022-12-29T09:19:38;100028.69;;;18.25;50.87
73455;BME280;61690;51.824;6.306;2022-12-29T09:22:03;100021.06;;;18.33;50.83
73455;BME280;61690;51.824;6.306;2022-12-29T09:24:29;100036.25;;;18.41;50.66
73455;BME280;61690;51.824;6.306;2022-12-29T09:26:54;100030.38;;;18.49;50.66
73455;BME280;61690;51.824;6.306;2022-12-29T09:29:20;100030.72;;;18.55;50.77
73455;BME280;61690;51.824;6.306;2022-12-29T09:33:18;100028.44;;;19.28;49.63
73455;BME280;61690;51.824;6.306;2022-12-29T09:35:44;100016.16;;;19.38;49.24
73455;BME280;61690;51.824;6.306;2022-12-29T09:38:11;100028.13;;;19.43;49.53
73455;BME280;61690;51.824;6.306;2022-12-29T09:40:37;100040.22;;;19.45;49.78
73455;BME280;61690;51.824;6.306;2022-12-29T09:43:32;100045.22;;;19.48;49.76
73455;BME280;61690;51.824;6.306;2022-12-29T09:46:24;100045.81;;;19.52;49.41
73455;BME280;61690;51.824;6.306;2022-12-29T09:49:13;100039.00;;;19.49;49.84
73455;BME280;61690;51.824;6.306;2022-12-29T09:51:43;100049.34;;;19.41;49.16
73455;BME280;61690;51.824;6.306;2022-12-29T09:54:26;100048.38;;;19.42;49.55
73455;BME280;61690;51.824;6.306;2022-12-29T09:56:56;100060.03;;;19.39;49.41
73455;BME280;61690;51.824;6.306;2022-12-29T09:59:27;100062.53;;;19.41;49.28
73455;BME280;61690;51.824;6.306;2022-12-29T10:02:20;100063.69;;;19.48;50.10
73455;BME280;61690;51.824;6.306;2022-12-29T10:04:48;100071.84;;;19.56;49.70
73455;BME280;61690;51.824;6.306;2022-12-29T10:10:03;100083.03;;;19.70;50.46
73455;BME280;61690;51.824;6.306;2022-12-29T10:12:50;100075.88;;;19.72;50.29
73455;BME280;61690;51.824;6.306;2022-12-29T10:21:35;100076.19;;;19.67;50.12
73455;BME280;61690;51.824;6.306;2022-12-29T10:24:04;100088.06;;;19.73;50.33
73455;BME280;61690;51.824;6.306;2022-12-29T10:26:37;100093.34;;;19.73;50.65
73455;BME280;61690;51.824;6.306;2022-12-29T10:29:19;100095.03;;;19.74;50.48
73455;BME280;61690;51.824;6.306;2022-12-29T10:31:58;100098.38;;;19.76;50.36
73455;BME280;61690;51.824;6.306;2022-12-29T10:37:09;100100.16;;;19.87;50.23
73455;BME280;61690;51.824;6.306;2022-12-29T10:39:42;100107.91;;;19.88;50.02
73455;BME280;61690;51.824;6.306;2022-12-29T10:42:32;100109.97;;;19.85;50.27
73455;BME280;61690;51.824;6.306;2022-12-29T10:44:59;100102.91;;;19.85;50.44
73455;BME280;61690;51.824;6.306;2022-12-29T10:47:28;100138.63;;;19.89;50.22
73455;BME280;61690;51.824;6.306;2022-12-29T10:49:54;100130.19;;;19.95;50.14
73455;BME280;61690;51.824;6.306;2022-12-29T10:52:22;100125.50;;;19.99;50.24
73455;BME280;61690;51.824;6.306;2022-12-29T10:57:31;100133.03;;;20.04;50.22
73455;BME280;61690;51.824;6.306;2022-12-29T10:59:58;100132.19;;;20.03;49.49
73455;BME280;61690;51.824;6.306;2022-12-29T11:02:41;100135.94;;;20.01;49.49
73455;BME280;61690;51.824;6.306;2022-12-29T11:05:19;100142.75;;;20.03;49.14
73455;BME280;61690;51.824;6.306;2022-12-29T11:07:51;100144.28;;;20.06;49.47
73455;BME280;61690;51.824;6.306;2022-12-29T11:10:28;100155.59;;;20.08;49.45
73455;BME280;61690;51.824;6.306;2022-12-29T11:13:04;100145.47;;;20.13;49.48
73455;BME280;61690;51.824;6.306;2022-12-29T11:15:59;100155.66;;;20.17;49.49
73455;BME280;61690;51.824;6.306;2022-12-29T11:18:34;100150.94;;;20.21;49.65
73455;BME280;61690;51.824;6.306;2022-12-29T11:21:03;100162.06;;;20.25;49.66
73455;BME280;61690;51.824;6.306;2022-12-29T11:23:38;100168.22;;;20.25;49.44
73455;BME280;61690;51.824;6.306;2022-12-29T11:28:37;100174.19;;;20.27;49.29
73455;BME280;61690;51.824;6.306;2022-12-29T11:31:04;100172.28;;;20.29;49.57
73455;BME280;61690;51.824;6.306;2022-12-29T11:33:32;100182.56;;;20.32;49.70
73455;BME280;61690;51.824;6.306;2022-12-29T11:35:59;100180.06;;;20.31;49.70
73455;BME280;61690;51.824;6.306;2022-12-29T11:38:36;100172.84;;;20.33;49.52
73455;BME280;61690;51.824;6.306;2022-12-29T11:41:03;100192.88;;;20.35;49.50
73455;BME280;61690;51.824;6.306;2022-12-29T11:43:31;100192.63;;;20.39;49.35
73455;BME280;61690;51.824;6.306;2022-12-29T11:46:01;100190.22;;;20.35;49.54
73455;BME280;61690;51.824;6.306;2022-12-29T11:48:33;100191.66;;;20.40;49.57
73455;BME280;61690;51.824;6.306;2022-12-29T11:51:03;100205.56;;;20.42;49.53
73455;BME280;61690;51.824;6.306;2022-12-29T11:53:45;100197.91;;;20.39;49.28
73455;BME280;61690;51.824;6.306;2022-12-29T11:56:30;100200.97;;;20.44;49.25
73455;BME280;61690;51.824;6.306;2022-12-29T11:58:57;100200.03;;;20.45;49.33
73455;BME280;61690;51.824;6.306;2022-12-29T12:01:31;100220.19;;;20.46;49.30
73455;BME280;61690;51.824;6.306;2022-12-29T12:04:03;100214.78;;;20.47;49.04
73455;BME280;61690;51.824;6.306;2022-12-29T12:06:35;100217.41;;;20.47;49.12
73455;BME280;61690;51.824;6.306;2022-12-29T12:09:06;100217.28;;;20.49;49.06
73455;BME280;61690;51.824;6.306;2022-12-29T12:11:39;100206.84;;;20.47;48.45
73455;BME280;61690;51.824;6.306;2022-12-29T12:14:21;100216.13;;;20.42;48.30
73455;BME280;61690;51.824;6.306;2022-12-29T12:16:53;100231.16;;;20.41;48.34
73455;BME280;61690;51.824;6.306;2022-12-29T12:19:32;100224.69;;;20.34;48.67
73455;BME280;61690;51.824;6.306;2022-12-29T12:22:16;100231.06;;;20.31;48.81
73455;BME280;61690;51.824;6.306;2022-12-29T12:28:00;100245.69;;;20.35;48.81
73455;BME280;61690;51.824;6.306;2022-12-29T12:30:29;100238.88;;;20.33;48.96
73455;BME280;61690;51.824;6.306;2022-12-29T12:32:59;100239.25;;;20.28;49.22
73455;BME280;61690;51.824;6.306;2022-12-29T12:35:50;100241.66;;;20.31;49.16
73455;BME280;61690;51.824;6.306;2022-12-29T12:44:24;100253.31;;;20.29;49.57
73455;BME280;61690;51.824;6.306;2022-12-29T12:52:36;100271.56;;;20.21;49.71
73455;BME280;61690;51.824;6.306;2022-12-29T12:55:28;100274.81;;;20.24;49.55
73455;BME280;61690;51.824;6.306;2022-12-29T12:58:09;100273.84;;;20.25;49.38
73455;BME280;61690;51.824;6.306;2022-12-29T13:01:04;100272.16;;;20.24;49.56
73455;BME280;61690;51.824;6.306;2022-12-29T13:08:59;100277.31;;;20.26;49.44
73455;BME280;61690;51.824;6.306;2022-12-29T13:14:49;100279.13;;;20.25;49.22
73455;BME280;61690;51.824;6.306;2022-12-29T13:17:25;100274.56;;;20.27;49.46
73455;BME280;61690;51.824;6.306;2022-12-29T13:20:41;100286.06;;;20.26;49.21
73455;BME280;61690;51.824;6.306;2022-12-29T13:26:32;100286.78;;;20.28;49.10
73455;BME280;61690;51.824;6.306;2022-12-29T13:29:17;100288.47;;;20.29;48.95
73455;BME280;61690;51.824;6.306;2022-12-29T13:32:08;100278.03;;;20.28;48.73
73455;BME280;61690;51.824;6.306;2022-12-29T13:38:13;100293.53;;;20.21;48.87
73455;BME280;61690;51.824;6.306;2022-12-29T13:40:46;100291.47;;;20.25;49.37
73455;BME280;61690;51.824;6.306;2022-12-29T13:43:14;100296.63;;;20.26;49.39
73455;BME280;61690;51.824;6.306;2022-12-29T13:45:42;100291.34;;;20.26;49.64
73455;BME280;61690;51.824;6.306;2022-12-29T13:48:24;100291.25;;;20.28;47.91
73455;BME280;61690;51.824;6.306;2022-12-29T13:50:58;100296.03;;;20.23;48.09
73455;BME280;61690;51.824;6.306;2022-12-29T13:53:41;100295.22;;;20.22;48.24
73455;BME280;61690;51.824;6.306;2022-12-29T13:56:16;100304.09;;;20.21;48.48
73455;BME280;61690;51.824;6.306;2022-12-29T13:59:03;100303.13;;;20.22;48.50
73455;BME280;61690;51.824;6.306;2022-12-29T14:01:34;100306.72;;;20.21;48.65
73455;BME280;61690;51.824;6.306;2022-12-29T14:04:04;100312.06;;;20.10;49.21
73455;BME280;61690;51.824;6.306;2022-12-29T14:06:35;100315.06;;;20.05;49.18
73455;BME280;61690;51.824;6.306;2022-12-29T14:09:26;100317.97;;;20.02;49.11
73455;BME280;61690;51.824;6.306;2022-12-29T14:11:52;100326.13;;;19.99;49.09
73455;BME280;61690;51.824;6.306;2022-12-29T14:14:22;100322.91;;;19.95;49.26
73455;BME280;61690;51.824;6.306;2022-12-29T14:16:49;100341.63;;;19.92;49.36
73455;BME280;61690;51.824;6.306;2022-12-29T14:19:18;100336.34;;;19.92;49.22
73455;BME280;61690;51.824;6.306;2022-12-29T14:22:02;100343.53;;;19.90;49.37
73455;BME280;61690;51.824;6.306;2022-12-29T14:34:51;100345.69;;;20.08;50.32
73455;BME280;61690;51.824;6.306;2022-12-29T14:37:25;100356.81;;;20.11;50.60